sensor_id;sensor_type;location;lat;lon;timestamp;P1;durP1;ratioP1;P2;durP2;ratioP2
17145;SDS011;8688;54.444;18.444;2023-05-03T00:01:46;34.70;;;17.47;;
17145;SDS011;8688;54.444;18.444;2023-05-03T00:04:14;38.07;;;17.27;;
17145;SDS011;8688;54.444;18.444;2023-05-03T00:06:42;38.77;;;16.70;;
17145;SDS011;8688;54.444;18.444;2023-05-03T00:09:11;38.07;;;16.77;;
17145;SDS011;8688;54.444;18.444;2023-05-03T00:11:39;36.97;;;16.63;;
17145;SDS011;8688;54.444;18.444;2023-05-03T00:14:06;35.47;;;16.57;;
17145;SDS011;8688;54.444;18.444;2023-05-03T00:16:34;38.67;;;17.07;;
17145;SDS011;8688;54.444;18.444;2023-05-03T00:19:02;38.53;;;16.23;;
17145;SDS011;8688;54.444;18.444;2023-05-03T00:21:29;36.33;;;17.27;;
17145;SDS011;8688;54.444;18.444;2023-05-03T00:23:57;37.40;;;16.67;;
17145;SDS011;8688;54.444;18.444;2023-05-03T00:26:26;41.03;;;18.03;;
17145;SDS011;8688;54.444;18.444;2023-05-03T00:28:53;39.00;;;18.13;;
17145;SDS011;8688;54.444;18.444;2023-05-03T00:31:21;34.30;;;16.97;;
17145;SDS011;8688;54.444;18.444;2023-05-03T00:33:48;39.00;;;17.10;;
17145;SDS011;8688;54.444;18.444;2023-05-03T00:36:16;36.87;;;16.30;;
17145;SDS011;8688;54.444;18.444;2023-05-03T00:38:44;41.80;;;17.60;;
17145;SDS011;8688;54.444;18.444;2023-05-03T00:41:11;36.40;;;16.73;;
17145;SDS011;8688;54.444;18.444;2023-05-03T00:43:40;31.47;;;15.40;;
17145;SDS011;8688;54.444;18.444;2023-05-03T00:46:08;41.27;;;16.67;;
17145;SDS011;8688;54.444;18.444;2023-05-03T00:48:36;35.60;;;15.73;;
17145;SDS011;8688;54.444;18.444;2023-05-03T00:51:03;32.53;;;15.83;;
17145;SDS011;8688;54.444;18.444;2023-05-03T00:53:32;32.57;;;15.70;;
17145;SDS011;8688;54.444;18.444;2023-05-03T00:56:00;31.73;;;15.07;;
17145;SDS011;8688;54.444;18.444;2023-05-03T00:58:30;38.80;;;16.00;;
17145;SDS011;8688;54.444;18.444;2023-05-03T01:01:02;35.43;;;16.27;;
17145;SDS011;8688;54.444;18.444;2023-05-03T01:03:30;36.93;;;15.70;;
17145;SDS011;8688;54.444;18.444;2023-05-03T01:06:02;32.33;;;15.57;;
17145;SDS011;8688;54.444;18.444;2023-05-03T01:08:38;35.33;;;15.47;;
17145;SDS011;8688;54.444;18.444;2023-05-03T01:11:10;28.37;;;14.63;;
17145;SDS011;8688;54.444;18.444;2023-05-03T01:13:47;31.73;;;14.67;;
17145;SDS011;8688;54.444;18.444;2023-05-03T01:16:23;29.20;;;14.13;;
17145;SDS011;8688;54.444;18.444;2023-05-03T01:18:56;33.03;;;14.77;;
17145;SDS011;8688;54.444;18.444;2023-05-03T01:21:29;33.90;;;14.83;;
17145;SDS011;8688;54.444;18.444;2023-05-03T01:24:02;29.17;;;13.73;;
17145;SDS011;8688;54.444;18.444;2023-05-03T01:26:34;27.27;;;14.10;;
17145;SDS011;8688;54.444;18.444;2023-05-03T01:29:02;33.63;;;13.63;;
17145;SDS011;8688;54.444;18.444;2023-05-03T01:31:31;27.50;;;13.53;;
17145;SDS011;8688;54.444;18.444;2023-05-03T01:34:09;32.50;;;13.87;;
17145;SDS011;8688;54.444;18.444;2023-05-03T01:36:47;28.40;;;13.03;;
17145;SDS011;8688;54.444;18.444;2023-05-03T01:39:17;27.93;;;12.23;;
17145;SDS011;8688;54.444;18.444;2023-05-03T01:41:50;26.00;;;11.73;;
17145;SDS011;8688;54.444;18.444;2023-05-03T01:44:19;27.40;;;10.80;;
17145;SDS011;8688;54.444;18.444;2023-05-03T01:46:48;23.27;;;10.50;;
17145;SDS011;8688;54.444;18.444;2023-05-03T01:49:15;22.23;;;8.97;;
17145;SDS011;8688;54.444;18.444;2023-05-03T01:51:43;21.33;;;10.10;;
17145;SDS011;8688;54.444;18.444;2023-05-03T01:54:10;19.13;;;9.23;;
17145;SDS011;8688;54.444;18.444;2023-05-03T01:56:38;18.93;;;9.13;;
17145;SDS011;8688;54.444;18.444;2023-05-03T01:59:07;19.53;;;8.10;;
17145;SDS011;8688;54.444;18.444;2023-05-03T02:01:35;15.40;;;7.87;;
17145;SDS011;8688;54.444;18.444;2023-05-03T02:04:02;13.90;;;7.27;;
17145;SDS011;8688;54.444;18.444;2023-05-03T02:06:30;18.70;;;6.40;;
17145;SDS011;8688;54.444;18.444;2023-05-03T02:08:57;11.67;;;5.37;;
17145;SDS011;8688;54.444;18.444;2023-05-03T02:11:25;14.33;;;5.43;;
17145;SDS011;8688;54.444;18.444;2023-05-03T02:13:52;11.90;;;5.07;;
17145;SDS011;8688;54.444;18.444;2023-05-03T02:16:21;11.33;;;4.70;;
17145;SDS011;8688;54.444;18.444;2023-05-03T02:18:49;14.50;;;4.87;;
17145;SDS011;8688;54.444;18.444;2023-05-03T02:21:17;10.53;;;4.73;;
17145;SDS011;8688;54.444;18.444;2023-05-03T02:23:45;12.27;;;5.00;;
17145;SDS011;8688;54.444;18.444;2023-05-03T02:26:12;9.53;;;4.47;;
17145;SDS011;8688;54.444;18.444;2023-05-03T02:28:40;10.70;;;5.00;;
17145;SDS011;8688;54.444;18.444;2023-05-03T02:31:07;13.10;;;5.77;;
17145;SDS011;8688;54.444;18.444;2023-05-03T02:33:36;9.20;;;4.53;;
17145;SDS011;8688;54.444;18.444;2023-05-03T02:36:04;11.70;;;5.17;;
17145;SDS011;8688;54.444;18.444;2023-05-03T02:38:32;14.30;;;5.23;;
17145;SDS011;8688;54.444;18.444;2023-05-03T02:40:59;11.23;;;5.10;;
17145;SDS011;8688;54.444;18.444;2023-05-03T02:43:27;11.63;;;5.10;;
17145;SDS011;8688;54.444;18.444;2023-05-03T02:45:54;11.90;;;4.70;;
17145;SDS011;8688;54.444;18.444;2023-05-03T02:48:22;10.67;;;4.83;;
17145;SDS011;8688;54.444;18.444;2023-05-03T02:50:51;13.00;;;4.83;;
17145;SDS011;8688;54.444;18.444;2023-05-03T02:53:19;14.33;;;4.90;;
17145;SDS011;8688;54.444;18.444;2023-05-03T02:55:47;14.17;;;4.67;;
17145;SDS011;8688;54.444;18.444;2023-05-03T02:58:15;10.10;;;4.70;;
17145;SDS011;8688;54.444;18.444;2023-05-03T03:00:43;12.57;;;5.27;;
17145;SDS011;8688;54.444;18.444;2023-05-03T03:03:10;14.60;;;5.17;;
17145;SDS011;8688;54.444;18.444;2023-05-03T03:05:37;12.40;;;4.90;;
17145;SDS011;8688;54.444;18.444;2023-05-03T03:08:07;11.37;;;4.70;;
17145;SDS011;8688;54.444;18.444;2023-05-03T03:10:34;10.57;;;4.30;;
17145;SDS011;8688;54.444;18.444;2023-05-03T03:13:02;13.63;;;5.30;;
17145;SDS011;8688;54.444;18.444;2023-05-03T03:15:29;11.20;;;4.70;;
17145;SDS011;8688;54.444;18.444;2023-05-03T03:17:57;9.60;;;4.57;;
17145;SDS011;8688;54.444;18.444;2023-05-03T03:20:25;11.10;;;4.57;;
17145;SDS011;8688;54.444;18.444;2023-05-03T03:22:52;11.40;;;4.87;;
17145;SDS011;8688;54.444;18.444;2023-05-03T03:25:21;11.50;;;4.73;;
17145;SDS011;8688;54.444;18.444;2023-05-03T03:27:49;9.63;;;4.73;;
17145;SDS011;8688;54.444;18.444;2023-05-03T03:30:17;10.67;;;5.30;;
17145;SDS011;8688;54.444;18.444;2023-05-03T03:32:44;9.70;;;4.33;;
17145;SDS011;8688;54.444;18.444;2023-05-03T03:35:12;13.43;;;4.80;;
17145;SDS011;8688;54.444;18.444;2023-05-03T03:37:41;9.40;;;4.60;;
17145;SDS011;8688;54.444;18.444;2023-05-03T03:40:09;11.33;;;4.80;;
17145;SDS011;8688;54.444;18.444;2023-05-03T03:42:38;11.43;;;4.40;;
17145;SDS011;8688;54.444;18.444;2023-05-03T03:45:06;10.83;;;4.73;;
17145;SDS011;8688;54.444;18.444;2023-05-03T03:47:35;10.90;;;4.83;;
17145;SDS011;8688;54.444;18.444;2023-05-03T03:50:02;12.67;;;5.27;;
17145;SDS011;8688;54.444;18.444;2023-05-03T03:52:30;17.00;;;4.93;;
17145;SDS011;8688;54.444;18.444;2023-05-03T03:54:58;9.53;;;4.90;;
17145;SDS011;8688;54.444;18.444;2023-05-03T03:57:25;9.77;;;4.43;;
17145;SDS011;8688;54.444;18.444;2023-05-03T03:59:56;11.77;;;4.80;;
17145;SDS011;8688;54.444;18.444;2023-05-03T04:02:24;8.27;;;4.27;;
17145;SDS011;8688;54.444;18.444;2023-05-03T04:04:51;10.23;;;4.57;;
17145;SDS011;8688;54.444;18.444;2023-05-03T04:07:19;10.57;;;4.70;;
17145;SDS011;8688;54.444;18.444;2023-05-03T04:09:46;11.37;;;4.53;;
17145;SDS011;8688;54.444;18.444;2023-05-03T04:12:14;13.27;;;4.80;;
17145;SDS011;8688;54.444;18.444;2023-05-03T04:14:41;9.00;;;4.00;;
17145;SDS011;8688;54.444;18.444;2023-05-03T04:17:10;11.97;;;3.90;;
17145;SDS011;8688;54.444;18.444;2023-05-03T04:19:38;12.63;;;4.07;;
17145;SDS011;8688;54.444;18.444;2023-05-03T04:22:05;11.57;;;4.30;;
17145;SDS011;8688;54.444;18.444;2023-05-03T04:24:33;7.90;;;4.17;;
17145;SDS011;8688;54.444;18.444;2023-05-03T04:27:03;9.87;;;4.40;;
17145;SDS011;8688;54.444;18.444;2023-05-03T04:29:32;10.67;;;4.67;;
17145;SDS011;8688;54.444;18.444;2023-05-03T04:32:03;9.63;;;3.87;;
17145;SDS011;8688;54.444;18.444;2023-05-03T04:34:32;10.20;;;4.53;;
17145;SDS011;8688;54.444;18.444;2023-05-03T04:37:02;8.03;;;4.07;;
17145;SDS011;8688;54.444;18.444;2023-05-03T04:39:29;14.50;;;4.70;;
17145;SDS011;8688;54.444;18.444;2023-05-03T04:41:57;7.07;;;4.10;;
17145;SDS011;8688;54.444;18.444;2023-05-03T04:44:25;9.97;;;4.37;;
17145;SDS011;8688;54.444;18.444;2023-05-03T04:46:53;7.37;;;3.90;;
17145;SDS011;8688;54.444;18.444;2023-05-03T04:49:21;8.73;;;4.00;;
17145;SDS011;8688;54.444;18.444;2023-05-03T04:51:50;7.07;;;3.97;;
17145;SDS011;8688;54.444;18.444;2023-05-03T04:54:17;8.90;;;4.00;;
17145;SDS011;8688;54.444;18.444;2023-05-03T04:56:45;11.37;;;3.97;;
17145;SDS011;8688;54.444;18.444;2023-05-03T04:59:12;10.13;;;3.90;;
17145;SDS011;8688;54.444;18.444;2023-05-03T05:01:40;7.07;;;4.20;;
17145;SDS011;8688;54.444;18.444;2023-05-03T05:04:07;7.10;;;3.47;;
17145;SDS011;8688;54.444;18.444;2023-05-03T05:06:35;7.67;;;3.63;;
17145;SDS011;8688;54.444;18.444;2023-05-03T05:09:05;8.57;;;3.30;;
17145;SDS011;8688;54.444;18.444;2023-05-03T05:11:33;10.53;;;3.47;;
17145;SDS011;8688;54.444;18.444;2023-05-03T05:14:02;9.40;;;3.30;;
17145;SDS011;8688;54.444;18.444;2023-05-03T05:16:30;5.60;;;3.33;;
17145;SDS011;8688;54.444;18.444;2023-05-03T05:18:57;5.40;;;2.90;;
17145;SDS011;8688;54.444;18.444;2023-05-03T05:21:25;9.30;;;3.40;;
17145;SDS011;8688;54.444;18.444;2023-05-03T05:23:53;10.37;;;3.43;;
17145;SDS011;8688;54.444;18.444;2023-05-03T05:26:22;6.17;;;3.10;;
17145;SDS011;8688;54.444;18.444;2023-05-03T05:28:50;5.93;;;2.87;;
17145;SDS011;8688;54.444;18.444;2023-05-03T05:31:17;7.17;;;3.33;;
17145;SDS011;8688;54.444;18.444;2023-05-03T05:33:45;6.70;;;3.20;;
17145;SDS011;8688;54.444;18.444;2023-05-03T05:36:13;7.70;;;3.10;;
17145;SDS011;8688;54.444;18.444;2023-05-03T05:38:40;10.67;;;3.30;;
17145;SDS011;8688;54.444;18.444;2023-05-03T05:41:08;9.53;;;3.40;;
17145;SDS011;8688;54.444;18.444;2023-05-03T05:43:37;5.60;;;2.83;;
17145;SDS011;8688;54.444;18.444;2023-05-03T05:46:05;8.20;;;2.80;;
17145;SDS011;8688;54.444;18.444;2023-05-03T05:48:32;8.30;;;3.03;;
17145;SDS011;8688;54.444;18.444;2023-05-03T05:51:00;5.87;;;3.00;;
17145;SDS011;8688;54.444;18.444;2023-05-03T05:53:28;6.40;;;3.23;;
17145;SDS011;8688;54.444;18.444;2023-05-03T05:55:55;6.50;;;3.20;;
17145;SDS011;8688;54.444;18.444;2023-05-03T05:58:23;5.60;;;3.03;;
17145;SDS011;8688;54.444;18.444;2023-05-03T06:00:52;7.80;;;3.13;;
17145;SDS011;8688;54.444;18.444;2023-05-03T06:03:25;8.60;;;3.33;;
17145;SDS011;8688;54.444;18.444;2023-05-03T06:05:54;4.87;;;3.00;;
17145;SDS011;8688;54.444;18.444;2023-05-03T06:08:21;7.50;;;2.90;;
17145;SDS011;8688;54.444;18.444;2023-05-03T06:10:50;7.20;;;3.07;;
17145;SDS011;8688;54.444;18.444;2023-05-03T06:13:18;6.90;;;2.93;;
17145;SDS011;8688;54.444;18.444;2023-05-03T06:15:45;6.70;;;2.67;;
17145;SDS011;8688;54.444;18.444;2023-05-03T06:18:14;4.27;;;2.40;;
17145;SDS011;8688;54.444;18.444;2023-05-03T06:20:42;4.90;;;2.50;;
17145;SDS011;8688;54.444;18.444;2023-05-03T06:23:10;6.60;;;2.60;;
17145;SDS011;8688;54.444;18.444;2023-05-03T06:25:37;4.20;;;2.43;;
17145;SDS011;8688;54.444;18.444;2023-05-03T06:28:05;6.13;;;2.67;;
17145;SDS011;8688;54.444;18.444;2023-05-03T06:30:32;4.17;;;2.20;;
17145;SDS011;8688;54.444;18.444;2023-05-03T06:33:00;3.97;;;2.13;;
17145;SDS011;8688;54.444;18.444;2023-05-03T06:35:30;5.93;;;2.77;;
17145;SDS011;8688;54.444;18.444;2023-05-03T06:37:58;5.33;;;2.40;;
17145;SDS011;8688;54.444;18.444;2023-05-03T06:40:25;5.75;;;2.20;;
17145;SDS011;8688;54.444;18.444;2023-05-03T06:42:53;3.30;;;1.93;;
17145;SDS011;8688;54.444;18.444;2023-05-03T06:45:20;7.07;;;2.10;;
17145;SDS011;8688;54.444;18.444;2023-05-03T06:47:48;2.90;;;1.30;;
17145;SDS011;8688;54.444;18.444;2023-05-03T06:50:15;4.25;;;1.65;;
17145;SDS011;8688;54.444;18.444;2023-05-03T06:52:48;3.85;;;1.95;;
17145;SDS011;8688;54.444;18.444;2023-05-03T06:55:16;3.50;;;2.00;;
17145;SDS011;8688;54.444;18.444;2023-05-03T06:57:44;2.75;;;1.55;;
17145;SDS011;8688;54.444;18.444;2023-05-03T07:00:13;3.10;;;1.60;;
17145;SDS011;8688;54.444;18.444;2023-05-03T07:02:41;4.85;;;1.50;;
17145;SDS011;8688;54.444;18.444;2023-05-03T07:05:08;3.33;;;1.20;;
17145;SDS011;8688;54.444;18.444;2023-05-03T07:07:36;1.88;;;1.30;;
17145;SDS011;8688;54.444;18.444;2023-05-03T07:10:06;2.13;;;1.30;;
17145;SDS011;8688;54.444;18.444;2023-05-03T07:12:34;3.28;;;1.40;;
17145;SDS011;8688;54.444;18.444;2023-05-03T07:15:01;2.47;;;1.27;;
17145;SDS011;8688;54.444;18.444;2023-05-03T07:17:29;1.55;;;0.90;;
17145;SDS011;8688;54.444;18.444;2023-05-03T07:19:56;3.63;;;1.20;;
17145;SDS011;8688;54.444;18.444;2023-05-03T07:22:24;6.28;;;1.42;;
17145;SDS011;8688;54.444;18.444;2023-05-03T07:24:52;2.35;;;0.98;;
17145;SDS011;8688;54.444;18.444;2023-05-03T07:27:22;1.95;;;1.00;;
17145;SDS011;8688;54.444;18.444;2023-05-03T07:29:50;2.35;;;0.90;;
17145;SDS011;8688;54.444;18.444;2023-05-03T07:32:20;2.88;;;1.13;;
17145;SDS011;8688;54.444;18.444;2023-05-03T07:34:48;1.33;;;1.00;;
17145;SDS011;8688;54.444;18.444;2023-05-03T07:37:15;2.17;;;1.30;;
17145;SDS011;8688;54.444;18.444;2023-05-03T07:39:43;2.72;;;1.30;;
17145;SDS011;8688;54.444;18.444;2023-05-03T07:42:11;2.30;;;1.20;;
17145;SDS011;8688;54.444;18.444;2023-05-03T07:44:42;3.05;;;1.30;;
17145;SDS011;8688;54.444;18.444;2023-05-03T07:47:09;2.22;;;1.40;;
17145;SDS011;8688;54.444;18.444;2023-05-03T07:49:37;4.00;;;1.23;;
17145;SDS011;8688;54.444;18.444;2023-05-03T07:52:05;4.35;;;1.73;;
17145;SDS011;8688;54.444;18.444;2023-05-03T07:54:32;4.28;;;1.30;;
17145;SDS011;8688;54.444;18.444;2023-05-03T07:57:00;4.45;;;1.40;;
17145;SDS011;8688;54.444;18.444;2023-05-03T07:59:28;2.92;;;1.30;;
17145;SDS011;8688;54.444;18.444;2023-05-03T08:01:57;2.55;;;1.25;;
17145;SDS011;8688;54.444;18.444;2023-05-03T08:04:25;2.03;;;1.25;;
17145;SDS011;8688;54.444;18.444;2023-05-03T08:06:52;2.53;;;1.25;;
17145;SDS011;8688;54.444;18.444;2023-05-03T08:09:20;3.10;;;1.58;;
17145;SDS011;8688;54.444;18.444;2023-05-03T08:11:48;4.28;;;1.30;;
17145;SDS011;8688;54.444;18.444;2023-05-03T08:14:15;4.20;;;1.40;;
17145;SDS011;8688;54.444;18.444;2023-05-03T08:16:43;2.60;;;1.50;;
17145;SDS011;8688;54.444;18.444;2023-05-03T08:19:12;1.77;;;1.10;;
17145;SDS011;8688;54.444;18.444;2023-05-03T08:21:40;1.80;;;1.27;;
17145;SDS011;8688;54.444;18.444;2023-05-03T08:24:07;2.17;;;1.40;;
17145;SDS011;8688;54.444;18.444;2023-05-03T08:26:35;2.53;;;1.27;;
17145;SDS011;8688;54.444;18.444;2023-05-03T08:29:02;2.83;;;1.17;;
17145;SDS011;8688;54.444;18.444;2023-05-03T08:31:30;3.05;;;1.20;;
17145;SDS011;8688;54.444;18.444;2023-05-03T08:33:58;2.47;;;1.20;;
17145;SDS011;8688;54.444;18.444;2023-05-03T08:36:27;1.55;;;1.20;;
17145;SDS011;8688;54.444;18.444;2023-05-03T08:38:55;1.83;;;1.00;;
17145;SDS011;8688;54.444;18.444;2023-05-03T08:41:25;3.58;;;1.20;;
17145;SDS011;8688;54.444;18.444;2023-05-03T08:43:55;1.20;;;0.85;;
17145;SDS011;8688;54.444;18.444;2023-05-03T08:46:23;4.03;;;1.25;;
17145;SDS011;8688;54.444;18.444;2023-05-03T08:48:51;4.53;;;1.27;;
17145;SDS011;8688;54.444;18.444;2023-05-03T08:51:20;1.85;;;0.98;;
17145;SDS011;8688;54.444;18.444;2023-05-03T08:53:50;1.60;;;0.80;;
17145;SDS011;8688;54.444;18.444;2023-05-03T08:56:22;1.60;;;0.80;;
17145;SDS011;8688;54.444;18.444;2023-05-03T08:58:53;1.75;;;0.85;;
17145;SDS011;8688;54.444;18.444;2023-05-03T09:01:22;2.83;;;0.90;;
17145;SDS011;8688;54.444;18.444;2023-05-03T09:03:50;3.85;;;0.70;;
17145;SDS011;8688;54.444;18.444;2023-05-03T09:06:18;2.63;;;0.80;;
17145;SDS011;8688;54.444;18.444;2023-05-03T09:08:47;1.52;;;0.80;;
17145;SDS011;8688;54.444;18.444;2023-05-03T09:11:22;2.10;;;1.33;;
17145;SDS011;8688;54.444;18.444;2023-05-03T09:13:52;4.07;;;0.90;;
17145;SDS011;8688;54.444;18.444;2023-05-03T09:16:23;1.85;;;0.70;;
17145;SDS011;8688;54.444;18.444;2023-05-03T09:18:56;1.27;;;0.60;;
17145;SDS011;8688;54.444;18.444;2023-05-03T09:21:25;1.33;;;0.68;;
17145;SDS011;8688;54.444;18.444;2023-05-03T09:23:53;3.70;;;0.80;;
17145;SDS011;8688;54.444;18.444;2023-05-03T09:26:28;1.00;;;0.60;;
17145;SDS011;8688;54.444;18.444;2023-05-03T09:28:57;2.25;;;0.73;;
17145;SDS011;8688;54.444;18.444;2023-05-03T09:31:26;1.77;;;0.70;;
17145;SDS011;8688;54.444;18.444;2023-05-03T09:33:55;0.90;;;0.63;;
17145;SDS011;8688;54.444;18.444;2023-05-03T09:36:22;1.80;;;0.80;;
17145;SDS011;8688;54.444;18.444;2023-05-03T09:38:51;2.05;;;0.70;;
17145;SDS011;8688;54.444;18.444;2023-05-03T09:41:26;1.30;;;0.70;;
17145;SDS011;8688;54.444;18.444;2023-05-03T09:43:56;1.10;;;0.68;;
17145;SDS011;8688;54.444;18.444;2023-05-03T09:46:27;1.05;;;0.60;;
17145;SDS011;8688;54.444;18.444;2023-05-03T09:48:56;0.70;;;0.60;;
17145;SDS011;8688;54.444;18.444;2023-05-03T09:51:23;1.33;;;0.47;;
17145;SDS011;8688;54.444;18.444;2023-05-03T09:53:51;1.02;;;0.60;;
17145;SDS011;8688;54.444;18.444;2023-05-03T09:56:23;0.82;;;0.60;;
17145;SDS011;8688;54.444;18.444;2023-05-03T09:58:53;2.95;;;0.75;;
17145;SDS011;8688;54.444;18.444;2023-05-03T10:01:21;1.30;;;0.75;;
17145;SDS011;8688;54.444;18.444;2023-05-03T10:03:50;2.15;;;0.90;;
17145;SDS011;8688;54.444;18.444;2023-05-03T10:06:23;4.43;;;0.90;;
17145;SDS011;8688;54.444;18.444;2023-05-03T10:08:52;1.23;;;0.68;;
17145;SDS011;8688;54.444;18.444;2023-05-03T10:11:27;1.38;;;0.80;;
17145;SDS011;8688;54.444;18.444;2023-05-03T10:13:56;2.47;;;0.50;;
17145;SDS011;8688;54.444;18.444;2023-05-03T10:16:25;1.48;;;0.57;;
17145;SDS011;8688;54.444;18.444;2023-05-03T10:18:58;1.50;;;0.70;;
17145;SDS011;8688;54.444;18.444;2023-05-03T10:21:37;2.67;;;0.80;;
17145;SDS011;8688;54.444;18.444;2023-05-03T10:24:17;1.85;;;0.80;;
17145;SDS011;8688;54.444;18.444;2023-05-03T10:26:45;0.80;;;0.50;;
17145;SDS011;8688;54.444;18.444;2023-05-03T10:34:59;2.25;;;0.85;;
17145;SDS011;8688;54.444;18.444;2023-05-03T10:37:30;3.28;;;0.80;;
17145;SDS011;8688;54.444;18.444;2023-05-03T10:40:06;1.52;;;0.80;;
17145;SDS011;8688;54.444;18.444;2023-05-03T10:42:35;1.85;;;0.82;;
17145;SDS011;8688;54.444;18.444;2023-05-03T10:45:06;3.65;;;0.88;;
17145;SDS011;8688;54.444;18.444;2023-05-03T10:47:36;2.35;;;0.80;;
17145;SDS011;8688;54.444;18.444;2023-05-03T10:50:24;1.10;;;0.80;;
17145;SDS011;8688;54.444;18.444;2023-05-03T10:52:52;1.67;;;0.77;;
17145;SDS011;8688;54.444;18.444;2023-05-03T10:55:20;1.08;;;0.60;;
17145;SDS011;8688;54.444;18.444;2023-05-03T10:57:54;2.13;;;0.80;;
17145;SDS011;8688;54.444;18.444;2023-05-03T11:00:32;1.02;;;0.70;;
17145;SDS011;8688;54.444;18.444;2023-05-03T11:05:49;1.33;;;0.75;;
17145;SDS011;8688;54.444;18.444;2023-05-03T11:08:18;3.50;;;1.00;;
17145;SDS011;8688;54.444;18.444;2023-05-03T11:10:47;2.15;;;1.00;;
17145;SDS011;8688;54.444;18.444;2023-05-03T11:13:16;3.63;;;0.70;;
17145;SDS011;8688;54.444;18.444;2023-05-03T11:15:45;2.50;;;0.70;;
17145;SDS011;8688;54.444;18.444;2023-05-03T11:18:14;1.73;;;0.80;;
17145;SDS011;8688;54.444;18.444;2023-05-03T11:20:41;2.47;;;0.80;;
17145;SDS011;8688;54.444;18.444;2023-05-03T11:23:10;1.35;;;0.60;;
17145;SDS011;8688;54.444;18.444;2023-05-03T11:25:37;2.67;;;0.90;;
17145;SDS011;8688;54.444;18.444;2023-05-03T11:28:05;3.90;;;0.80;;
17145;SDS011;8688;54.444;18.444;2023-05-03T11:30:33;2.30;;;1.00;;
17145;SDS011;8688;54.444;18.444;2023-05-03T11:33:05;2.33;;;0.90;;
17145;SDS011;8688;54.444;18.444;2023-05-03T11:35:33;9.73;;;1.00;;
17145;SDS011;8688;54.444;18.444;2023-05-03T11:38:01;2.22;;;0.77;;
17145;SDS011;8688;54.444;18.444;2023-05-03T11:40:29;3.50;;;0.80;;
17145;SDS011;8688;54.444;18.444;2023-05-03T11:42:56;2.50;;;0.80;;
17145;SDS011;8688;54.444;18.444;2023-05-03T11:45:25;2.13;;;1.00;;
17145;SDS011;8688;54.444;18.444;2023-05-03T11:47:55;3.42;;;1.05;;
17145;SDS011;8688;54.444;18.444;2023-05-03T11:50:42;1.73;;;0.98;;
17145;SDS011;8688;54.444;18.444;2023-05-03T11:53:16;3.10;;;0.90;;
17145;SDS011;8688;54.444;18.444;2023-05-03T11:55:44;1.60;;;0.80;;
17145;SDS011;8688;54.444;18.444;2023-05-03T11:58:14;4.70;;;0.93;;
17145;SDS011;8688;54.444;18.444;2023-05-03T12:00:43;2.17;;;0.88;;
17145;SDS011;8688;54.444;18.444;2023-05-03T12:03:15;1.08;;;0.88;;
17145;SDS011;8688;54.444;18.444;2023-05-03T12:05:46;2.13;;;0.75;;
17145;SDS011;8688;54.444;18.444;2023-05-03T12:08:15;2.65;;;0.80;;
17145;SDS011;8688;54.444;18.444;2023-05-03T12:10:44;3.80;;;0.90;;
17145;SDS011;8688;54.444;18.444;2023-05-03T12:13:11;1.67;;;1.00;;
17145;SDS011;8688;54.444;18.444;2023-05-03T12:15:40;1.98;;;0.88;;
17145;SDS011;8688;54.444;18.444;2023-05-03T12:18:10;1.85;;;0.90;;
17145;SDS011;8688;54.444;18.444;2023-05-03T12:20:38;1.55;;;1.10;;
17145;SDS011;8688;54.444;18.444;2023-05-03T12:23:10;3.58;;;1.40;;
17145;SDS011;8688;54.444;18.444;2023-05-03T12:25:37;2.15;;;0.80;;
17145;SDS011;8688;54.444;18.444;2023-05-03T12:28:05;2.17;;;0.95;;
17145;SDS011;8688;54.444;18.444;2023-05-03T12:30:32;1.70;;;1.20;;
17145;SDS011;8688;54.444;18.444;2023-05-03T12:33:00;2.55;;;0.70;;
17145;SDS011;8688;54.444;18.444;2023-05-03T12:35:27;2.97;;;1.30;;
17145;SDS011;8688;54.444;18.444;2023-05-03T12:37:55;3.30;;;0.98;;
17145;SDS011;8688;54.444;18.444;2023-05-03T12:40:24;2.67;;;1.00;;
17145;SDS011;8688;54.444;18.444;2023-05-03T12:42:52;1.75;;;0.85;;
17145;SDS011;8688;54.444;18.444;2023-05-03T12:45:20;3.15;;;0.98;;
17145;SDS011;8688;54.444;18.444;2023-05-03T12:47:48;1.75;;;0.90;;
17145;SDS011;8688;54.444;18.444;2023-05-03T12:50:16;2.20;;;1.00;;
17145;SDS011;8688;54.444;18.444;2023-05-03T12:52:46;2.58;;;1.00;;
17145;SDS011;8688;54.444;18.444;2023-05-03T12:55:14;2.75;;;1.48;;
17145;SDS011;8688;54.444;18.444;2023-05-03T12:57:44;1.67;;;1.08;;
17145;SDS011;8688;54.444;18.444;2023-05-03T13:00:11;1.17;;;0.75;;
17145;SDS011;8688;54.444;18.444;2023-05-03T13:02:41;2.58;;;1.20;;
17145;SDS011;8688;54.444;18.444;2023-05-03T13:05:11;2.85;;;1.10;;
17145;SDS011;8688;54.444;18.444;2023-05-03T13:07:38;2.53;;;1.00;;
17145;SDS011;8688;54.444;18.444;2023-05-03T13:10:06;2.53;;;1.00;;
17145;SDS011;8688;54.444;18.444;2023-05-03T13:12:34;3.45;;;1.23;;
17145;SDS011;8688;54.444;18.444;2023-05-03T13:15:04;2.67;;;1.10;;
17145;SDS011;8688;54.444;18.444;2023-05-03T13:17:33;3.17;;;1.08;;
17145;SDS011;8688;54.444;18.444;2023-05-03T13:20:00;1.77;;;1.40;;
17145;SDS011;8688;54.444;18.444;2023-05-03T13:22:31;3.92;;;1.30;;
17145;SDS011;8688;54.444;18.444;2023-05-03T13:24:58;3.45;;;1.27;;
17145;SDS011;8688;54.444;18.444;2023-05-03T13:27:27;2.22;;;1.10;;
17145;SDS011;8688;54.444;18.444;2023-05-03T13:29:54;2.92;;;1.20;;
17145;SDS011;8688;54.444;18.444;2023-05-03T13:32:23;2.70;;;1.20;;
17145;SDS011;8688;54.444;18.444;2023-05-03T13:34:51;1.70;;;0.85;;
17145;SDS011;8688;54.444;18.444;2023-05-03T13:37:19;3.90;;;1.00;;
17145;SDS011;8688;54.444;18.444;2023-05-03T13:39:46;3.10;;;1.20;;
17145;SDS011;8688;54.444;18.444;2023-05-03T13:42:13;2.72;;;1.23;;
17145;SDS011;8688;54.444;18.444;2023-05-03T13:44:43;4.50;;;1.20;;
17145;SDS011;8688;54.444;18.444;2023-05-03T13:47:12;2.97;;;1.35;;
17145;SDS011;8688;54.444;18.444;2023-05-03T13:49:41;2.72;;;1.20;;
17145;SDS011;8688;54.444;18.444;2023-05-03T13:52:10;2.55;;;1.15;;
17145;SDS011;8688;54.444;18.444;2023-05-03T13:54:39;3.10;;;1.15;;
17145;SDS011;8688;54.444;18.444;2023-05-03T13:57:07;3.53;;;1.20;;
17145;SDS011;8688;54.444;18.444;2023-05-03T13:59:34;3.00;;;1.35;;
17145;SDS011;8688;54.444;18.444;2023-05-03T14:02:02;2.67;;;1.20;;
17145;SDS011;8688;54.444;18.444;2023-05-03T14:04:30;3.58;;;1.33;;
17145;SDS011;8688;54.444;18.444;2023-05-03T14:07:00;1.48;;;0.90;;
17145;SDS011;8688;54.444;18.444;2023-05-03T14:09:28;1.88;;;1.17;;
17145;SDS011;8688;54.444;18.444;2023-05-03T14:11:56;3.53;;;0.90;;
17145;SDS011;8688;54.444;18.444;2023-05-03T14:14:25;3.58;;;1.40;;
17145;SDS011;8688;54.444;18.444;2023-05-03T14:16:52;2.33;;;1.10;;
17145;SDS011;8688;54.444;18.444;2023-05-03T14:19:20;3.20;;;1.17;;
17145;SDS011;8688;54.444;18.444;2023-05-03T14:21:48;3.22;;;1.40;;
17145;SDS011;8688;54.444;18.444;2023-05-03T14:24:18;2.83;;;1.13;;
17145;SDS011;8688;54.444;18.444;2023-05-03T14:26:46;1.60;;;1.00;;
17145;SDS011;8688;54.444;18.444;2023-05-03T14:29:13;2.22;;;1.08;;
17145;SDS011;8688;54.444;18.444;2023-05-03T14:31:41;2.90;;;1.33;;
17145;SDS011;8688;54.444;18.444;2023-05-03T14:34:08;4.30;;;1.45;;
17145;SDS011;8688;54.444;18.444;2023-05-03T14:36:36;4.25;;;1.48;;
17145;SDS011;8688;54.444;18.444;2023-05-03T14:39:07;6.63;;;1.90;;
17145;SDS011;8688;54.444;18.444;2023-05-03T14:41:40;4.72;;;1.73;;
17145;SDS011;8688;54.444;18.444;2023-05-03T14:44:07;5.53;;;1.83;;
17145;SDS011;8688;54.444;18.444;2023-05-03T14:46:35;3.90;;;1.77;;
17145;SDS011;8688;54.444;18.444;2023-05-03T14:49:02;6.03;;;1.92;;
17145;SDS011;8688;54.444;18.444;2023-05-03T14:51:31;6.00;;;2.05;;
17145;SDS011;8688;54.444;18.444;2023-05-03T14:53:59;8.63;;;2.20;;
17145;SDS011;8688;54.444;18.444;2023-05-03T14:56:27;7.25;;;2.13;;
17145;SDS011;8688;54.444;18.444;2023-05-03T14:58:57;4.68;;;1.98;;
17145;SDS011;8688;54.444;18.444;2023-05-03T15:01:26;6.20;;;2.08;;